sensor_id;sensor_type;location;lat;lon;timestamp;pressure;altitude;pressure_sealevel;temperature;humidity
12536;BME280;6334;48.696;2.114;2023-11-19T00:00:00;99945.51;;;13.85;100.00
12536;BME280;6334;48.696;2.114;2023-11-19T00:02:30;99953.31;;;13.81;100.00
12536;BME280;6334;48.696;2.114;2023-11-19T00:05:01;99954.52;;;13.74;100.00
12536;BME280;6334;48.696;2.114;2023-11-19T00:07:31;99962.13;;;13.80;100.00
12536;BME280;6334;48.696;2.114;2023-11-19T00:10:01;99965.33;;;13.86;100.00
12536;BME280;6334;48.696;2.114;2023-11-19T00:12:32;99967.68;;;13.75;100.00
12536;BME280;6334;48.696;2.114;2023-11-19T00:15:02;99961.81;;;13.88;100.00
12536;BME280;6334;48.696;2.114;2023-11-19T00:17:33;99962.67;;;13.85;100.00
12536;BME280;6334;48.696;2.114;2023-11-19T00:20:03;99956.49;;;13.94;100.00
12536;BME280;6334;48.696;2.114;2023-11-19T00:22:35;99954.09;;;13.78;100.00
12536;BME280;6334;48.696;2.114;2023-11-19T00:25:05;99951.15;;;13.87;100.00
12536;BME280;6334;48.696;2.114;2023-11-19T00:27:36;99950.59;;;13.89;100.00
12536;BME280;6334;48.696;2.114;2023-11-19T00:30:06;99943.14;;;13.84;100.00
12536;BME280;6334;48.696;2.114;2023-11-19T00:32:37;99939.32;;;13.85;100.00
12536;BME280;6334;48.696;2.114;2023-11-19T00:35:06;99937.30;;;13.89;100.00
12536;BME280;6334;48.696;2.114;2023-11-19T00:37:36;99939.59;;;13.85;100.00
12536;BME280;6334;48.696;2.114;2023-11-19T00:40:06;99944.22;;;13.87;100.00
12536;BME280;6334;48.696;2.114;2023-11-19T00:42:36;99935.92;;;13.87;100.00
12536;BME280;6334;48.696;2.114;2023-11-19T00:45:07;99925.03;;;13.81;100.00
12536;BME280;6334;48.696;2.114;2023-11-19T00:47:37;99915.20;;;13.83;100.00
12536;BME280;6334;48.696;2.114;2023-11-19T00:50:07;99917.97;;;13.86;100.00
12536;BME280;6334;48.696;2.114;2023-11-19T00:52:38;99928.10;;;13.83;100.00
12536;BME280;6334;48.696;2.114;2023-11-19T00:55:09;99928.38;;;13.79;100.00
12536;BME280;6334;48.696;2.114;2023-11-19T00:57:38;99927.23;;;13.77;100.00
12536;BME280;6334;48.696;2.114;2023-11-19T01:00:08;99921.79;;;13.82;100.00
12536;BME280;6334;48.696;2.114;2023-11-19T01:02:42;99925.32;;;13.68;100.00
12536;BME280;6334;48.696;2.114;2023-11-19T01:05:12;99933.05;;;13.79;100.00
12536;BME280;6334;48.696;2.114;2023-11-19T01:07:42;99936.48;;;13.66;100.00
12536;BME280;6334;48.696;2.114;2023-11-19T01:10:12;99935.05;;;13.63;100.00
12536;BME280;6334;48.696;2.114;2023-11-19T01:12:46;99937.05;;;13.67;100.00
12536;BME280;6334;48.696;2.114;2023-11-19T01:15:15;99938.63;;;13.65;100.00
12536;BME280;6334;48.696;2.114;2023-11-19T01:17:48;99935.98;;;13.66;100.00
12536;BME280;6334;48.696;2.114;2023-11-19T01:20:19;99934.31;;;13.66;100.00
12536;BME280;6334;48.696;2.114;2023-11-19T01:22:49;99923.55;;;13.68;100.00
12536;BME280;6334;48.696;2.114;2023-11-19T01:25:19;99938.58;;;13.72;100.00
12536;BME280;6334;48.696;2.114;2023-11-19T01:27:49;99940.14;;;13.70;100.00
12536;BME280;6334;48.696;2.114;2023-11-19T01:30:19;99932.39;;;13.72;100.00
12536;BME280;6334;48.696;2.114;2023-11-19T01:32:50;99931.77;;;13.74;100.00
12536;BME280;6334;48.696;2.114;2023-11-19T01:35:20;99937.41;;;13.72;100.00
12536;BME280;6334;48.696;2.114;2023-11-19T01:37:51;99935.07;;;13.66;100.00
12536;BME280;6334;48.696;2.114;2023-11-19T01:40:21;99939.27;;;13.71;100.00
12536;BME280;6334;48.696;2.114;2023-11-19T01:42:51;99943.47;;;13.64;100.00
12536;BME280;6334;48.696;2.114;2023-11-19T01:45:30;99929.61;;;13.73;100.00
12536;BME280;6334;48.696;2.114;2023-11-19T01:48:00;99949.81;;;13.68;100.00
12536;BME280;6334;48.696;2.114;2023-11-19T01:50:32;99938.38;;;13.64;100.00
12536;BME280;6334;48.696;2.114;2023-11-19T01:53:03;99940.46;;;13.61;100.00
12536;BME280;6334;48.696;2.114;2023-11-19T01:55:33;99943.36;;;13.62;100.00
12536;BME280;6334;48.696;2.114;2023-11-19T01:58:04;99940.00;;;13.66;100.00
12536;BME280;6334;48.696;2.114;2023-11-19T02:00:34;99940.66;;;13.61;100.00
12536;BME280;6334;48.696;2.114;2023-11-19T02:03:08;99939.68;;;13.62;100.00
12536;BME280;6334;48.696;2.114;2023-11-19T02:05:38;99936.17;;;13.62;100.00
12536;BME280;6334;48.696;2.114;2023-11-19T02:08:08;99924.75;;;13.61;100.00
12536;BME280;6334;48.696;2.114;2023-11-19T02:10:38;99931.80;;;13.63;100.00
12536;BME280;6334;48.696;2.114;2023-11-19T02:13:10;99924.23;;;13.56;100.00
12536;BME280;6334;48.696;2.114;2023-11-19T02:15:40;99926.75;;;13.58;100.00
12536;BME280;6334;48.696;2.114;2023-11-19T02:18:22;99924.14;;;13.45;100.00
12536;BME280;6334;48.696;2.114;2023-11-19T02:20:51;99928.92;;;13.61;100.00
12536;BME280;6334;48.696;2.114;2023-11-19T02:23:21;99924.39;;;13.49;100.00
12536;BME280;6334;48.696;2.114;2023-11-19T02:26:02;99927.14;;;13.45;100.00
12536;BME280;6334;48.696;2.114;2023-11-19T02:28:30;99918.31;;;13.48;100.00
12536;BME280;6334;48.696;2.114;2023-11-19T02:31:01;99919.88;;;13.36;100.00
12536;BME280;6334;48.696;2.114;2023-11-19T02:33:34;99915.02;;;13.37;100.00
12536;BME280;6334;48.696;2.114;2023-11-19T02:36:04;99900.81;;;13.33;100.00
12536;BME280;6334;48.696;2.114;2023-11-19T02:38:35;99916.24;;;13.35;100.00
12536;BME280;6334;48.696;2.114;2023-11-19T02:41:06;99925.27;;;13.44;100.00
12536;BME280;6334;48.696;2.114;2023-11-19T02:43:36;99925.89;;;13.36;100.00
12536;BME280;6334;48.696;2.114;2023-11-19T02:46:05;99928.61;;;13.37;100.00
12536;BME280;6334;48.696;2.114;2023-11-19T02:48:36;99933.88;;;13.44;100.00
12536;BME280;6334;48.696;2.114;2023-11-19T02:51:06;99931.49;;;13.39;100.00
12536;BME280;6334;48.696;2.114;2023-11-19T02:53:36;99930.86;;;13.35;100.00
12536;BME280;6334;48.696;2.114;2023-11-19T02:56:05;99934.88;;;13.41;100.00
12536;BME280;6334;48.696;2.114;2023-11-19T02:58:47;99928.23;;;13.32;100.00
12536;BME280;6334;48.696;2.114;2023-11-19T03:01:22;99923.03;;;13.40;100.00
12536;BME280;6334;48.696;2.114;2023-11-19T03:03:52;99922.69;;;13.37;100.00
12536;BME280;6334;48.696;2.114;2023-11-19T03:06:22;99919.80;;;13.52;100.00
12536;BME280;6334;48.696;2.114;2023-11-19T03:08:52;99917.81;;;13.31;100.00
12536;BME280;6334;48.696;2.114;2023-11-19T03:11:21;99921.25;;;13.30;100.00
12536;BME280;6334;48.696;2.114;2023-11-19T03:13:52;99919.94;;;13.29;100.00
12536;BME280;6334;48.696;2.114;2023-11-19T03:16:22;99909.17;;;13.22;100.00
12536;BME280;6334;48.696;2.114;2023-11-19T03:18:53;99907.23;;;13.16;100.00
12536;BME280;6334;48.696;2.114;2023-11-19T03:21:29;99908.21;;;13.23;100.00
12536;BME280;6334;48.696;2.114;2023-11-19T03:24:00;99905.23;;;13.12;100.00
12536;BME280;6334;48.696;2.114;2023-11-19T03:26:30;99910.94;;;13.11;100.00
12536;BME280;6334;48.696;2.114;2023-11-19T03:29:01;99911.38;;;13.23;100.00
12536;BME280;6334;48.696;2.114;2023-11-19T03:31:31;99908.33;;;13.08;100.00
12536;BME280;6334;48.696;2.114;2023-11-19T03:34:01;99905.86;;;13.07;100.00
12536;BME280;6334;48.696;2.114;2023-11-19T03:36:34;99898.36;;;13.16;100.00
12536;BME280;6334;48.696;2.114;2023-11-19T03:39:04;99902.99;;;13.08;100.00
12536;BME280;6334;48.696;2.114;2023-11-19T03:41:35;99901.75;;;13.01;100.00
12536;BME280;6334;48.696;2.114;2023-11-19T03:44:04;99908.15;;;12.92;100.00
12536;BME280;6334;48.696;2.114;2023-11-19T03:46:35;99910.03;;;12.97;100.00
12536;BME280;6334;48.696;2.114;2023-11-19T03:49:06;99912.11;;;13.04;100.00
12536;BME280;6334;48.696;2.114;2023-11-19T03:51:37;99915.98;;;13.03;100.00
12536;BME280;6334;48.696;2.114;2023-11-19T03:54:07;99917.36;;;12.93;100.00
12536;BME280;6334;48.696;2.114;2023-11-19T03:56:38;99916.96;;;13.00;100.00
12536;BME280;6334;48.696;2.114;2023-11-19T03:59:07;99916.95;;;12.97;100.00
12536;BME280;6334;48.696;2.114;2023-11-19T04:01:38;99920.52;;;12.94;100.00
12536;BME280;6334;48.696;2.114;2023-11-19T04:04:08;99920.67;;;12.92;100.00
12536;BME280;6334;48.696;2.114;2023-11-19T04:06:40;99918.59;;;12.91;100.00
12536;BME280;6334;48.696;2.114;2023-11-19T04:09:10;99917.06;;;12.96;100.00
12536;BME280;6334;48.696;2.114;2023-11-19T04:11:40;99907.06;;;12.88;100.00
12536;BME280;6334;48.696;2.114;2023-11-19T04:14:10;99911.83;;;12.83;100.00
12536;BME280;6334;48.696;2.114;2023-11-19T04:16:41;99910.36;;;12.89;100.00
12536;BME280;6334;48.696;2.114;2023-11-19T04:19:11;99899.14;;;12.87;100.00
12536;BME280;6334;48.696;2.114;2023-11-19T04:21:41;99905.14;;;12.84;100.00
12536;BME280;6334;48.696;2.114;2023-11-19T04:24:11;99908.60;;;12.83;100.00
12536;BME280;6334;48.696;2.114;2023-11-19T04:26:42;99919.55;;;12.85;100.00
12536;BME280;6334;48.696;2.114;2023-11-19T04:29:12;99918.94;;;12.79;100.00
12536;BME280;6334;48.696;2.114;2023-11-19T04:31:43;99919.02;;;12.91;100.00
12536;BME280;6334;48.696;2.114;2023-11-19T04:34:12;99924.24;;;12.96;100.00
12536;BME280;6334;48.696;2.114;2023-11-19T04:36:42;99922.96;;;12.97;100.00
12536;BME280;6334;48.696;2.114;2023-11-19T04:39:12;99918.25;;;12.84;100.00
12536;BME280;6334;48.696;2.114;2023-11-19T04:41:46;99910.38;;;12.82;100.00
12536;BME280;6334;48.696;2.114;2023-11-19T04:44:16;99912.25;;;12.84;100.00
12536;BME280;6334;48.696;2.114;2023-11-19T04:46:46;99908.55;;;12.70;100.00
12536;BME280;6334;48.696;2.114;2023-11-19T04:49:16;99903.00;;;12.76;100.00
12536;BME280;6334;48.696;2.114;2023-11-19T04:51:46;99899.65;;;12.73;100.00
12536;BME280;6334;48.696;2.114;2023-11-19T04:54:16;99904.46;;;12.74;100.00
12536;BME280;6334;48.696;2.114;2023-11-19T04:56:47;99907.91;;;12.77;100.00
12536;BME280;6334;48.696;2.114;2023-11-19T04:59:17;99908.25;;;12.79;100.00
12536;BME280;6334;48.696;2.114;2023-11-19T05:01:47;99911.51;;;12.69;100.00
12536;BME280;6334;48.696;2.114;2023-11-19T05:04:17;99910.51;;;12.72;100.00
12536;BME280;6334;48.696;2.114;2023-11-19T05:06:48;99913.31;;;12.73;100.00
12536;BME280;6334;48.696;2.114;2023-11-19T05:09:18;99913.08;;;12.69;100.00
12536;BME280;6334;48.696;2.114;2023-11-19T05:11:48;99911.25;;;12.72;100.00
12536;BME280;6334;48.696;2.114;2023-11-19T05:14:19;99907.53;;;12.64;100.00
12536;BME280;6334;48.696;2.114;2023-11-19T05:16:49;99919.98;;;12.66;100.00
12536;BME280;6334;48.696;2.114;2023-11-19T05:19:20;99922.94;;;12.69;100.00
12536;BME280;6334;48.696;2.114;2023-11-19T05:21:50;99925.20;;;12.57;100.00
12536;BME280;6334;48.696;2.114;2023-11-19T05:24:21;99928.26;;;12.66;100.00
12536;BME280;6334;48.696;2.114;2023-11-19T05:26:51;99935.30;;;12.76;100.00
12536;BME280;6334;48.696;2.114;2023-11-19T05:29:22;99939.66;;;12.67;99.23
12536;BME280;6334;48.696;2.114;2023-11-19T05:31:52;99949.58;;;12.72;98.57
12536;BME280;6334;48.696;2.114;2023-11-19T05:34:23;99954.33;;;12.77;97.96
12536;BME280;6334;48.696;2.114;2023-11-19T05:36:54;99960.42;;;12.88;97.22
12536;BME280;6334;48.696;2.114;2023-11-19T05:39:25;99955.75;;;12.88;96.72
12536;BME280;6334;48.696;2.114;2023-11-19T05:41:55;99956.64;;;12.81;96.56
12536;BME280;6334;48.696;2.114;2023-11-19T05:44:26;99955.17;;;12.90;95.21
12536;BME280;6334;48.696;2.114;2023-11-19T05:46:55;99961.28;;;12.74;96.35
12536;BME280;6334;48.696;2.114;2023-11-19T05:49:26;99964.48;;;12.85;96.33
12536;BME280;6334;48.696;2.114;2023-11-19T05:51:57;99963.59;;;12.76;96.25
12536;BME280;6334;48.696;2.114;2023-11-19T05:54:27;99956.34;;;12.79;95.83
12536;BME280;6334;48.696;2.114;2023-11-19T05:56:58;99959.72;;;12.78;95.81
12536;BME280;6334;48.696;2.114;2023-11-19T05:59:28;99964.39;;;12.74;95.54
12536;BME280;6334;48.696;2.114;2023-11-19T06:01:58;99965.06;;;12.74;95.33
12536;BME280;6334;48.696;2.114;2023-11-19T06:04:27;99967.73;;;12.89;95.03
12536;BME280;6334;48.696;2.114;2023-11-19T06:06:57;99963.16;;;12.73;95.73
12536;BME280;6334;48.696;2.114;2023-11-19T06:09:27;99961.09;;;12.65;95.95
12536;BME280;6334;48.696;2.114;2023-11-19T06:11:57;99957.41;;;12.73;94.90
12536;BME280;6334;48.696;2.114;2023-11-19T06:14:29;99958.33;;;12.58;95.61
12536;BME280;6334;48.696;2.114;2023-11-19T06:16:59;99952.28;;;12.55;96.26
12536;BME280;6334;48.696;2.114;2023-11-19T06:19:30;99952.98;;;12.41;96.91
12536;BME280;6334;48.696;2.114;2023-11-19T06:22:00;99957.95;;;12.35;96.72
12536;BME280;6334;48.696;2.114;2023-11-19T06:24:31;99958.16;;;12.54;95.74
12536;BME280;6334;48.696;2.114;2023-11-19T06:27:01;99955.94;;;12.56;95.04
12536;BME280;6334;48.696;2.114;2023-11-19T06:29:32;99950.74;;;12.37;95.11
12536;BME280;6334;48.696;2.114;2023-11-19T06:32:02;99954.80;;;12.39;95.22
12536;BME280;6334;48.696;2.114;2023-11-19T06:34:32;99964.95;;;12.36;95.17
12536;BME280;6334;48.696;2.114;2023-11-19T06:37:03;99957.27;;;12.32;95.04
12536;BME280;6334;48.696;2.114;2023-11-19T06:39:34;99960.66;;;12.38;94.91
12536;BME280;6334;48.696;2.114;2023-11-19T06:42:04;99964.81;;;12.42;94.71
12536;BME280;6334;48.696;2.114;2023-11-19T06:44:34;99974.47;;;12.31;95.34
12536;BME280;6334;48.696;2.114;2023-11-19T06:47:05;99973.22;;;12.35;94.99
12536;BME280;6334;48.696;2.114;2023-11-19T06:49:35;99977.75;;;12.39;94.71
12536;BME280;6334;48.696;2.114;2023-11-19T06:52:05;99978.87;;;12.28;94.97
12536;BME280;6334;48.696;2.114;2023-11-19T06:54:35;99980.59;;;12.33;95.03
12536;BME280;6334;48.696;2.114;2023-11-19T06:57:05;99979.29;;;12.28;95.12
12536;BME280;6334;48.696;2.114;2023-11-19T06:59:35;99986.83;;;12.25;95.31
12536;BME280;6334;48.696;2.114;2023-11-19T07:02:06;99988.89;;;12.28;94.56
12536;BME280;6334;48.696;2.114;2023-11-19T07:04:35;99987.69;;;12.17;94.73
12536;BME280;6334;48.696;2.114;2023-11-19T07:07:05;99992.75;;;12.26;94.35
12536;BME280;6334;48.696;2.114;2023-11-19T07:09:35;99997.78;;;12.26;93.66
12536;BME280;6334;48.696;2.114;2023-11-19T07:12:06;100004.16;;;12.14;94.44
12536;BME280;6334;48.696;2.114;2023-11-19T07:14:36;100012.43;;;12.18;93.68
12536;BME280;6334;48.696;2.114;2023-11-19T07:17:07;100015.87;;;12.03;94.01
12536;BME280;6334;48.696;2.114;2023-11-19T07:19:37;100012.83;;;12.14;93.47
12536;BME280;6334;48.696;2.114;2023-11-19T07:22:07;100004.94;;;12.17;93.59
12536;BME280;6334;48.696;2.114;2023-11-19T07:24:40;99997.80;;;12.02;94.36
12536;BME280;6334;48.696;2.114;2023-11-19T07:27:08;99978.03;;;11.87;94.09
12536;BME280;6334;48.696;2.114;2023-11-19T07:29:38;100003.52;;;11.89;94.56
12536;BME280;6334;48.696;2.114;2023-11-19T07:32:09;100003.45;;;11.94;94.70
12536;BME280;6334;48.696;2.114;2023-11-19T07:34:38;100005.61;;;11.74;95.30
12536;BME280;6334;48.696;2.114;2023-11-19T07:37:09;100011.22;;;11.82;94.84
12536;BME280;6334;48.696;2.114;2023-11-19T07:39:39;100012.88;;;11.94;94.17
12536;BME280;6334;48.696;2.114;2023-11-19T07:42:09;100012.66;;;11.86;94.89
12536;BME280;6334;48.696;2.114;2023-11-19T07:44:40;100013.02;;;11.84;94.67
12536;BME280;6334;48.696;2.114;2023-11-19T07:47:11;100009.55;;;11.93;94.86
12536;BME280;6334;48.696;2.114;2023-11-19T07:49:40;100011.14;;;11.81;95.25
12536;BME280;6334;48.696;2.114;2023-11-19T07:52:10;100009.30;;;11.86;95.27
12536;BME280;6334;48.696;2.114;2023-11-19T07:54:40;100012.23;;;11.97;95.13
12536;BME280;6334;48.696;2.114;2023-11-19T07:57:11;100010.94;;;11.90;95.01
12536;BME280;6334;48.696;2.114;2023-11-19T07:59:41;100008.21;;;11.94;95.12
12536;BME280;6334;48.696;2.114;2023-11-19T08:02:12;100012.42;;;11.84;95.55
12536;BME280;6334;48.696;2.114;2023-11-19T08:04:41;100009.58;;;11.96;95.15
12536;BME280;6334;48.696;2.114;2023-11-19T08:07:11;100013.27;;;11.95;94.75
12536;BME280;6334;48.696;2.114;2023-11-19T08:09:41;100009.82;;;11.86;95.49
12536;BME280;6334;48.696;2.114;2023-11-19T08:12:12;100014.39;;;12.07;94.47
12536;BME280;6334;48.696;2.114;2023-11-19T08:14:41;100015.31;;;12.02;94.49
12536;BME280;6334;48.696;2.114;2023-11-19T08:17:12;100013.33;;;11.95;94.78
12536;BME280;6334;48.696;2.114;2023-11-19T08:19:41;100011.54;;;11.98;95.00
12536;BME280;6334;48.696;2.114;2023-11-19T08:22:11;100013.52;;;11.99;95.00
12536;BME280;6334;48.696;2.114;2023-11-19T08:24:40;100023.75;;;12.15;93.88
12536;BME280;6334;48.696;2.114;2023-11-19T08:27:10;100017.57;;;12.20;93.46
12536;BME280;6334;48.696;2.114;2023-11-19T08:29:41;100024.33;;;12.01;94.17
12536;BME280;6334;48.696;2.114;2023-11-19T08:32:11;100026.25;;;11.96;93.60
12536;BME280;6334;48.696;2.114;2023-11-19T08:34:41;100024.94;;;12.05;93.18
12536;BME280;6334;48.696;2.114;2023-11-19T08:37:12;100019.48;;;12.06;93.26
12536;BME280;6334;48.696;2.114;2023-11-19T08:39:42;100017.32;;;12.10;93.54
12536;BME280;6334;48.696;2.114;2023-11-19T08:42:13;100015.20;;;12.04;93.82
12536;BME280;6334;48.696;2.114;2023-11-19T08:44:50;100022.79;;;11.94;93.99
12536;BME280;6334;48.696;2.114;2023-11-19T08:47:20;100017.70;;;11.99;94.53
12536;BME280;6334;48.696;2.114;2023-11-19T08:49:52;100020.36;;;12.09;94.02
12536;BME280;6334;48.696;2.114;2023-11-19T08:52:22;100026.44;;;12.08;93.96
12536;BME280;6334;48.696;2.114;2023-11-19T08:54:53;100030.31;;;12.25;93.80
12536;BME280;6334;48.696;2.114;2023-11-19T08:57:24;100030.77;;;12.23;93.02
12536;BME280;6334;48.696;2.114;2023-11-19T08:59:55;100028.33;;;12.19;92.96
12536;BME280;6334;48.696;2.114;2023-11-19T09:02:25;100029.58;;;12.23;92.63
12536;BME280;6334;48.696;2.114;2023-11-19T09:04:55;100026.22;;;12.17;92.25
12536;BME280;6334;48.696;2.114;2023-11-19T09:07:28;100029.73;;;12.24;92.32
12536;BME280;6334;48.696;2.114;2023-11-19T09:09:58;100036.31;;;12.34;92.06
12536;BME280;6334;48.696;2.114;2023-11-19T09:12:29;100041.43;;;12.33;92.00
12536;BME280;6334;48.696;2.114;2023-11-19T09:14:58;100031.31;;;12.30;91.34
12536;BME280;6334;48.696;2.114;2023-11-19T09:17:29;100032.70;;;12.53;90.58
12536;BME280;6334;48.696;2.114;2023-11-19T09:20:04;100038.14;;;12.38;91.18
12536;BME280;6334;48.696;2.114;2023-11-19T09:22:33;100040.72;;;12.39;91.04
12536;BME280;6334;48.696;2.114;2023-11-19T09:25:05;100042.34;;;12.32;90.69
12536;BME280;6334;48.696;2.114;2023-11-19T09:27:36;100048.84;;;12.47;90.11
12536;BME280;6334;48.696;2.114;2023-11-19T09:30:07;100037.92;;;12.53;89.81
12536;BME280;6334;48.696;2.114;2023-11-19T09:32:36;100051.56;;;12.44;90.83
12536;BME280;6334;48.696;2.114;2023-11-19T09:35:10;100052.94;;;12.41;90.08
12536;BME280;6334;48.696;2.114;2023-11-19T09:37:42;100045.28;;;12.54;89.92
12536;BME280;6334;48.696;2.114;2023-11-19T09:40:12;100041.22;;;12.68;88.45
12536;BME280;6334;48.696;2.114;2023-11-19T09:42:48;100043.20;;;12.57;89.45
12536;BME280;6334;48.696;2.114;2023-11-19T09:45:17;100044.91;;;12.60;89.21
12536;BME280;6334;48.696;2.114;2023-11-19T09:47:47;100048.47;;;12.66;89.09
12536;BME280;6334;48.696;2.114;2023-11-19T09:50:17;100031.80;;;12.76;88.86
12536;BME280;6334;48.696;2.114;2023-11-19T09:52:48;100042.70;;;12.77;88.04
12536;BME280;6334;48.696;2.114;2023-11-19T09:55:18;100041.20;;;12.86;87.96
12536;BME280;6334;48.696;2.114;2023-11-19T09:57:49;100044.59;;;12.83;87.52
12536;BME280;6334;48.696;2.114;2023-11-19T10:00:19;100046.24;;;12.87;87.43
12536;BME280;6334;48.696;2.114;2023-11-19T10:02:49;100046.76;;;12.75;87.94
12536;BME280;6334;48.696;2.114;2023-11-19T10:05:20;100030.71;;;12.91;87.22
12536;BME280;6334;48.696;2.114;2023-11-19T10:07:52;100034.83;;;13.02;86.93
12536;BME280;6334;48.696;2.114;2023-11-19T10:10:22;100039.75;;;13.17;89.06
12536;BME280;6334;48.696;2.114;2023-11-19T10:12:52;100047.18;;;13.13;87.34
12536;BME280;6334;48.696;2.114;2023-11-19T10:15:23;100046.43;;;13.14;86.32
12536;BME280;6334;48.696;2.114;2023-11-19T10:17:56;100060.00;;;13.20;86.50
12536;BME280;6334;48.696;2.114;2023-11-19T10:20:26;100060.41;;;13.32;85.60
12536;BME280;6334;48.696;2.114;2023-11-19T10:22:57;100050.17;;;13.18;85.51
12536;BME280;6334;48.696;2.114;2023-11-19T10:25:28;100067.67;;;13.20;86.69
12536;BME280;6334;48.696;2.114;2023-11-19T10:27:58;100060.02;;;13.08;86.07
12536;BME280;6334;48.696;2.114;2023-11-19T10:30:29;100067.45;;;13.26;85.03
12536;BME280;6334;48.696;2.114;2023-11-19T10:33:05;100060.09;;;13.27;85.72
12536;BME280;6334;48.696;2.114;2023-11-19T10:35:36;100050.96;;;13.14;84.55
12536;BME280;6334;48.696;2.114;2023-11-19T10:38:15;100046.75;;;13.11;85.02
12536;BME280;6334;48.696;2.114;2023-11-19T10:40:45;100044.20;;;13.01;84.05
12536;BME280;6334;48.696;2.114;2023-11-19T10:43:16;100045.52;;;13.03;83.51
12536;BME280;6334;48.696;2.114;2023-11-19T10:45:46;100041.17;;;13.10;83.76
12536;BME280;6334;48.696;2.114;2023-11-19T10:48:17;100041.88;;;12.97;83.53
12536;BME280;6334;48.696;2.114;2023-11-19T10:50:49;100028.64;;;13.03;85.45
12536;BME280;6334;48.696;2.114;2023-11-19T10:53:18;100030.02;;;13.00;82.58
12536;BME280;6334;48.696;2.114;2023-11-19T10:55:48;100022.20;;;13.10;82.56
12536;BME280;6334;48.696;2.114;2023-11-19T10:58:18;100025.89;;;12.94;83.38
12536;BME280;6334;48.696;2.114;2023-11-19T11:00:52;100033.81;;;13.15;81.86
12536;BME280;6334;48.696;2.114;2023-11-19T11:03:21;100027.91;;;13.02;81.18
12536;BME280;6334;48.696;2.114;2023-11-19T11:05:52;100028.58;;;13.20;81.43
12536;BME280;6334;48.696;2.114;2023-11-19T11:08:22;100024.39;;;13.13;81.72
12536;BME280;6334;48.696;2.114;2023-11-19T11:10:55;100031.13;;;13.35;81.44
12536;BME280;6334;48.696;2.114;2023-11-19T11:13:22;100023.37;;;13.45;81.04
12536;BME280;6334;48.696;2.114;2023-11-19T11:15:52;100016.47;;;13.24;81.19
12536;BME280;6334;48.696;2.114;2023-11-19T11:18:22;100028.14;;;13.13;81.04
12536;BME280;6334;48.696;2.114;2023-11-19T11:20:53;100018.95;;;13.25;80.70
12536;BME280;6334;48.696;2.114;2023-11-19T11:26:23;100022.40;;;13.28;80.21
12536;BME280;6334;48.696;2.114;2023-11-19T11:29:03;100015.58;;;13.23;79.35
12536;BME280;6334;48.696;2.114;2023-11-19T11:31:34;100011.12;;;13.27;78.71
12536;BME280;6334;48.696;2.114;2023-11-19T11:34:26;100006.59;;;13.40;78.51
12536;BME280;6334;48.696;2.114;2023-11-19T11:39:39;100015.94;;;13.44;78.83
12536;BME280;6334;48.696;2.114;2023-11-19T11:45:10;100021.00;;;13.49;78.17
12536;BME280;6334;48.696;2.114;2023-11-19T11:50:13;100027.33;;;13.67;77.75
12536;BME280;6334;48.696;2.114;2023-11-19T11:55:34;100020.61;;;13.44;76.47
12536;BME280;6334;48.696;2.114;2023-11-19T11:57:59;100014.92;;;13.58;76.88
12536;BME280;6334;48.696;2.114;2023-11-19T12:03:02;100004.23;;;13.61;76.61
12536;BME280;6334;48.696;2.114;2023-11-19T12:05:32;100008.79;;;13.80;76.14
12536;BME280;6334;48.696;2.114;2023-11-19T12:08:02;100005.72;;;13.55;77.18
12536;BME280;6334;48.696;2.114;2023-11-19T12:10:32;100000.72;;;13.44;76.07
12536;BME280;6334;48.696;2.114;2023-11-19T12:13:01;100008.84;;;13.57;75.33
12536;BME280;6334;48.696;2.114;2023-11-19T12:15:32;100008.81;;;13.58;75.35
12536;BME280;6334;48.696;2.114;2023-11-19T12:18:02;100011.11;;;13.80;75.97
12536;BME280;6334;48.696;2.114;2023-11-19T12:20:32;100004.39;;;13.69;77.00
12536;BME280;6334;48.696;2.114;2023-11-19T12:23:04;99998.05;;;13.71;77.97
12536;BME280;6334;48.696;2.114;2023-11-19T12:25:32;99998.61;;;13.63;78.37
12536;BME280;6334;48.696;2.114;2023-11-19T12:28:02;99996.67;;;13.70;77.44
12536;BME280;6334;48.696;2.114;2023-11-19T12:30:34;99993.72;;;13.84;77.62
12536;BME280;6334;48.696;2.114;2023-11-19T12:33:10;99998.96;;;13.82;76.92
12536;BME280;6334;48.696;2.114;2023-11-19T12:35:45;99993.06;;;13.70;74.82
12536;BME280;6334;48.696;2.114;2023-11-19T12:38:18;99990.69;;;14.07;76.42
12536;BME280;6334;48.696;2.114;2023-11-19T12:41:22;99991.52;;;13.95;75.85
12536;BME280;6334;48.696;2.114;2023-11-19T12:43:25;99990.15;;;14.08;78.07
12536;BME280;6334;48.696;2.114;2023-11-19T12:45:55;99983.03;;;14.08;76.61
12536;BME280;6334;48.696;2.114;2023-11-19T12:48:25;99985.38;;;13.76;74.35
12536;BME280;6334;48.696;2.114;2023-11-19T12:50:57;99996.23;;;13.96;74.80
12536;BME280;6334;48.696;2.114;2023-11-19T12:53:26;99988.06;;;13.93;74.56
12536;BME280;6334;48.696;2.114;2023-11-19T12:55:59;100002.02;;;13.70;73.05
12536;BME280;6334;48.696;2.114;2023-11-19T12:58:33;99987.31;;;13.50;73.64
12536;BME280;6334;48.696;2.114;2023-11-19T13:01:05;99982.81;;;13.62;72.11
12536;BME280;6334;48.696;2.114;2023-11-19T13:03:36;99989.05;;;13.48;73.11
12536;BME280;6334;48.696;2.114;2023-11-19T13:06:06;99987.92;;;13.34;73.79
12536;BME280;6334;48.696;2.114;2023-11-19T13:11:08;99985.96;;;13.33;73.78
12536;BME280;6334;48.696;2.114;2023-11-19T13:14:00;99990.49;;;13.45;73.91
12536;BME280;6334;48.696;2.114;2023-11-19T13:16:27;99993.98;;;13.40;73.63
12536;BME280;6334;48.696;2.114;2023-11-19T13:18:56;99995.65;;;13.53;74.97
12536;BME280;6334;48.696;2.114;2023-11-19T13:21:26;99996.98;;;13.64;73.46
12536;BME280;6334;48.696;2.114;2023-11-19T13:23:56;100002.63;;;13.45;73.98
12536;BME280;6334;48.696;2.114;2023-11-19T13:26:26;100000.94;;;13.69;72.71
12536;BME280;6334;48.696;2.114;2023-11-19T13:28:58;99996.22;;;13.60;72.76
12536;BME280;6334;48.696;2.114;2023-11-19T13:31:29;99999.94;;;13.62;73.03
12536;BME280;6334;48.696;2.114;2023-11-19T13:33:59;99997.94;;;13.72;73.55
12536;BME280;6334;48.696;2.114;2023-11-19T13:36:30;100001.43;;;13.86;73.29
12536;BME280;6334;48.696;2.114;2023-11-19T13:39:00;99995.45;;;13.72;74.58